Time;durP1;ratioP1;P1;durP2;ratioP2;P2;SDS_P1;SDS_P2;PMS_P1;PMS_P2;Temp;Humidity;BMP_temperature;BMP_pressure;BME280_temperature;BME280_humidity;BME280_pressure;Samples;Min_cycle;Max_cycle;Signal;HPM_P1;HPM_P2
2023/12/14 00:01:28;;;;;;;;;5.00;2.67;;;;;10.12;83.73;100702.38;4997938;28;45561;-56
2023/12/14 00:03:53;;;;;;;;;3.00;3.00;;;;;10.11;84.17;100714.81;4997301;28;45757;-56
2023/12/14 00:06:18;;;;;;;;;4.33;2.00;;;;;10.14;83.93;100727.78;4997389;28;45373;-52
2023/12/14 00:08:43;;;;;;;;;5.00;5.00;;;;;10.15;83.75;100718.84;4997571;28;45385;-56
2023/12/14 00:11:10;;;;;;;;;3.00;3.00;;;;;10.15;84.03;100724.16;4997460;28;45413;-54
2023/12/14 00:13:36;;;;;;;;;6.00;2.00;;;;;10.13;83.91;100726.13;4997141;28;46665;-55
2023/12/14 00:16:02;;;;;;;;;2.00;2.00;;;;;10.20;83.36;100729.91;4997188;28;45450;-54
2023/12/14 00:18:28;;;;;;;;;1.00;1.00;;;;;10.22;83.29;100741.22;4997282;28;45390;-57
2023/12/14 00:20:53;;;;;;;;;1.33;1.33;;;;;10.24;83.03;100744.59;4997457;28;45501;-49
2023/12/14 00:23:19;;;;;;;;;1.00;1.00;;;;;10.27;82.95;100745.28;4996962;28;46231;-49
2023/12/14 00:25:45;;;;;;;;;3.00;2.00;;;;;10.24;82.50;100749.06;4997408;28;45410;-53
2023/12/14 00:28:10;;;;;;;;;1.33;1.33;;;;;10.26;82.45;100756.91;4997280;28;45306;-53
2023/12/14 00:30:36;;;;;;;;;1.00;1.00;;;;;10.26;82.47;100762.22;4997330;28;45332;-50
2023/12/14 00:33:01;;;;;;;;;3.00;2.00;;;;;10.24;82.11;100755.25;4996169;28;49616;-51
2023/12/14 00:35:26;;;;;;;;;1.67;1.67;;;;;10.23;82.32;100771.28;4996752;28;45263;-53
2023/12/14 00:37:51;;;;;;;;;2.33;2.33;;;;;10.24;82.39;100770.31;4997143;28;45279;-54
2023/12/14 00:40:17;;;;;;;;;1.00;1.00;;;;;10.25;82.27;100772.03;4997292;28;45301;-51
2023/12/14 00:42:42;;;;;;;;;3.00;3.00;;;;;10.26;81.90;100773.69;4996596;28;46805;-50
2023/12/14 00:45:08;;;;;;;;;5.33;2.00;;;;;10.28;81.49;100786.84;4996857;28;45290;-54
2023/12/14 00:47:33;;;;;;;;;1.00;1.00;;;;;10.28;81.57;100792.16;4997002;28;45333;-53
2023/12/14 00:49:59;;;;;;;;;3.00;2.00;;;;;10.26;82.00;100789.66;4995907;28;45383;-49
2023/12/14 00:52:24;;;;;;;;;2.00;2.00;;;;;10.26;82.49;100804.75;4996646;28;45397;-51
2023/12/14 00:54:49;;;;;;;;;1.00;0.00;;;;;10.23;82.60;100812.00;4996648;28;45352;-52
2023/12/14 00:57:15;;;;;;;;;2.00;2.00;;;;;10.24;82.66;100813.72;4996971;28;45440;-49
2023/12/14 00:59:40;;;;;;;;;3.00;1.00;;;;;10.21;83.00;100811.31;4996943;28;45388;-52
2023/12/14 01:02:06;;;;;;;;;0.00;0.00;;;;;10.18;82.34;100816.91;4996502;28;46243;-49
2023/12/14 01:04:31;;;;;;;;;3.00;1.67;;;;;10.20;82.67;100827.44;4996481;28;45389;-52
2023/12/14 01:06:56;;;;;;;;;0.33;0.33;;;;;10.17;82.40;100827.69;4996686;28;45866;-50
2023/12/14 01:09:22;;;;;;;;;1.00;1.00;;;;;10.15;82.96;100832.31;4996785;28;45429;-50
2023/12/14 01:11:47;;;;;;;;;1.33;1.00;;;;;10.14;82.60;100825.31;4996404;28;47151;-47
2023/12/14 01:14:12;;;;;;;;;0.00;0.00;;;;;10.12;83.00;100833.44;4996553;28;45302;-51
2023/12/14 01:16:38;;;;;;;;;1.00;1.00;;;;;10.11;83.34;100833.56;4996023;28;45327;-52
2023/12/14 01:19:05;;;;;;;;;1.00;1.00;;;;;10.07;82.54;100832.16;4996618;28;45357;-52
2023/12/14 01:21:31;;;;;;;;;0.00;0.00;;;;;9.97;82.82;100833.03;4996423;28;47146;-54
2023/12/14 01:23:56;;;;;;;;;0.00;0.00;;;;;10.07;83.13;100859.63;4996288;28;45507;-51
2023/12/14 01:26:21;;;;;;;;;0.67;0.67;;;;;10.07;83.05;100859.63;4995225;28;45271;-55
2023/12/14 01:28:47;;;;;;;;;2.00;0.67;;;;;10.05;82.94;100860.72;4996358;28;45458;-53
2023/12/14 01:31:12;;;;;;;;;0.00;0.00;;;;;10.07;83.38;100867.59;4995970;28;49974;-54
2023/12/14 01:33:37;;;;;;;;;2.33;0.00;;;;;10.08;82.91;100873.75;4996021;28;45318;-53
2023/12/14 01:36:03;;;;;;;;;1.00;0.00;;;;;10.09;83.01;100878.06;4995962;28;45677;-55
2023/12/14 01:38:28;;;;;;;;;0.00;0.00;;;;;10.06;82.79;100876.50;4996376;28;45473;-53
2023/12/14 01:40:55;;;;;;;;;1.67;1.33;;;;;10.07;82.77;100883.53;4995879;28;54547;-51
2023/12/14 01:43:21;;;;;;;;;1.00;1.00;;;;;10.05;82.84;100882.81;4996087;28;45891;-51
2023/12/14 01:45:47;;;;;;;;;0.00;0.00;;;;;9.98;82.61;100887.00;4996801;28;45428;-51
2023/12/14 01:48:12;;;;;;;;;0.00;0.00;;;;;10.06;82.72;100900.44;4999934;28;45458;-55
2023/12/14 01:50:37;;;;;;;;;1.67;1.00;;;;;10.05;82.76;100904.09;4999729;28;46213;-53
2023/12/14 01:53:03;;;;;;;;;0.33;0.33;;;;;10.03;82.67;100908.72;4999948;28;45364;-55
2023/12/14 01:55:28;;;;;;;;;1.00;1.00;;;;;10.02;82.69;100912.31;4999930;28;45354;-49
2023/12/14 01:57:54;;;;;;;;;0.00;0.00;;;;;10.02;82.71;100920.31;4999913;28;45416;-54
2023/12/14 02:00:45;;;;;;;;;2.00;0.00;;;;;10.03;82.36;100926.44;4998989;28;46108;-53
2023/12/14 02:03:10;;;;;;;;;1.67;1.67;;;;;9.98;82.95;100926.88;4999189;28;45358;-53
2023/12/14 02:05:36;;;;;;;;;1.00;1.00;;;;;10.03;82.61;100937.09;4999535;28;45403;-53
2023/12/14 02:08:01;;;;;;;;;0.67;0.67;;;;;10.02;82.53;100946.88;5000086;28;45365;-56
2023/12/14 02:10:27;;;;;;;;;0.00;0.00;;;;;10.04;82.45;100944.09;4999121;28;51486;-46
2023/12/14 02:12:52;;;;;;;;;1.00;1.00;;;;;9.95;82.75;100951.91;4998823;28;49410;-49
2023/12/14 02:15:17;;;;;;;;;0.00;0.00;;;;;10.02;82.94;100967.31;4998972;28;45417;-46
2023/12/14 02:17:43;;;;;;;;;1.67;1.00;;;;;10.00;83.26;100968.28;4999459;28;45469;-51
2023/12/14 02:20:08;;;;;;;;;1.33;0.00;;;;;10.00;83.71;100967.44;4998805;28;53942;-51
2023/12/14 02:22:53;;;;;;;;;1.00;0.00;;;;;10.01;83.61;100985.06;4999039;28;45369;-51
2023/12/14 02:25:19;;;;;;;;;1.00;0.00;;;;;10.03;83.70;100983.13;4999166;28;45372;-50
2023/12/14 02:27:44;;;;;;;;;0.00;0.00;;;;;9.91;83.71;100955.81;4999361;28;45317;-51
2023/12/14 02:30:11;;;;;;;;;0.00;0.00;;;;;10.00;83.61;100973.59;4998730;28;46041;-45
2023/12/14 02:32:37;;;;;;;;;2.00;0.33;;;;;10.01;83.42;100985.06;4998938;28;45357;-50
2023/12/14 02:35:03;;;;;;;;;2.00;1.00;;;;;9.97;83.78;100988.97;4998655;28;45527;-44
2023/12/14 02:37:28;;;;;;;;;0.33;0.33;;;;;9.98;83.49;100993.31;4998985;28;45412;-53
2023/12/14 02:39:54;;;;;;;;;0.00;0.00;;;;;10.00;83.47;100986.88;4998568;28;51166;-48
2023/12/14 02:42:19;;;;;;;;;0.33;0.33;;;;;10.00;83.21;101007.31;4998603;28;52324;-50
2023/12/14 02:44:44;;;;;;;;;2.00;0.67;;;;;9.99;83.32;101005.63;4998790;28;45583;-51
2023/12/14 02:47:10;;;;;;;;;2.00;0.67;;;;;9.90;83.22;100982.50;4998886;28;45330;-46
2023/12/14 02:49:35;;;;;;;;;1.00;1.00;;;;;9.98;83.27;101017.22;4998515;28;50326;-53
2023/12/14 02:52:00;;;;;;;;;0.67;0.67;;;;;9.99;83.18;101017.13;4998608;28;45337;-55
2023/12/14 02:54:26;;;;;;;;;0.67;0.67;;;;;10.00;83.09;101009.97;4998539;28;45335;-49
2023/12/14 02:56:51;;;;;;;;;2.00;0.33;;;;;10.01;82.99;101019.63;4998439;28;45736;-52
2023/12/14 02:59:16;;;;;;;;;0.00;0.00;;;;;10.01;82.85;101022.28;4998261;28;49404;-54
2023/12/14 03:01:42;;;;;;;;;0.00;0.00;;;;;10.02;82.78;101023.94;4996958;28;45410;-50
2023/12/14 03:04:07;;;;;;;;;2.00;0.67;;;;;10.04;82.68;101029.16;4998353;28;45705;-50
2023/12/14 03:06:33;;;;;;;;;1.00;1.00;;;;;10.01;82.88;101024.94;4998509;28;45352;-46
2023/12/14 03:08:58;;;;;;;;;0.00;0.00;;;;;10.07;82.61;101028.84;4998169;28;47328;-51
2023/12/14 03:11:24;;;;;;;;;1.67;1.67;;;;;10.05;82.62;101039.63;4998374;28;45369;-50
2023/12/14 03:13:49;;;;;;;;;3.00;1.00;;;;;10.04;82.58;101039.78;4998188;28;45418;-50
2023/12/14 03:16:16;;;;;;;;;1.33;1.00;;;;;10.04;82.68;101045.94;4998533;28;46113;-48
2023/12/14 03:18:42;;;;;;;;;2.00;1.00;;;;;10.02;82.46;101047.03;4998023;28;46291;-53
2023/12/14 03:21:09;;;;;;;;;1.00;1.00;;;;;10.05;82.46;101054.75;4997423;28;45274;-49
2023/12/14 03:23:34;;;;;;;;;0.00;0.00;;;;;10.02;82.50;101053.19;4998119;28;45417;-53
2023/12/14 03:25:59;;;;;;;;;1.00;1.00;;;;;10.06;82.57;101059.91;4998382;28;45333;-50
2023/12/14 03:28:25;;;;;;;;;0.00;0.00;;;;;9.98;82.34;101051.78;4997967;28;46509;-53
2023/12/14 03:30:50;;;;;;;;;1.67;0.33;;;;;10.07;82.65;101069.59;4997632;28;46367;-50
2023/12/14 03:33:16;;;;;;;;;0.00;0.00;;;;;9.94;82.31;101045.91;4998066;28;45367;-46
2023/12/14 03:35:42;;;;;;;;;0.00;0.00;;;;;10.08;82.70;101067.78;4998197;28;45428;-50
2023/12/14 03:38:08;;;;;;;;;1.00;1.00;;;;;10.07;82.55;101074.91;4997735;28;47039;-54
2023/12/14 03:40:34;;;;;;;;;1.67;1.00;;;;;10.08;82.61;101081.91;4997964;28;45432;-50
2023/12/14 03:42:59;;;;;;;;;0.00;0.00;;;;;10.08;82.48;101089.88;4997886;28;45397;-51
2023/12/14 03:45:24;;;;;;;;;0.00;0.00;;;;;10.08;82.50;101097.84;4997798;28;45427;-53
2023/12/14 03:47:50;;;;;;;;;1.00;1.00;;;;;10.01;82.45;101088.72;4997468;28;46184;-49
2023/12/14 03:50:15;;;;;;;;;1.00;1.00;;;;;10.07;82.68;101104.16;4996336;28;45506;-51
2023/12/14 03:52:40;;;;;;;;;4.33;1.00;;;;;10.07;82.53;101106.81;4997779;28;45401;-51
2023/12/14 03:55:06;;;;;;;;;0.67;0.67;;;;;10.06;82.80;101101.59;4997780;28;45386;-54
2023/12/14 03:57:31;;;;;;;;;1.67;1.00;;;;;10.08;82.63;101115.63;4997403;28;46320;-53
2023/12/14 03:59:57;;;;;;;;;1.67;1.00;;;;;10.06;82.57;101115.72;4997498;28;45435;-51
2023/12/14 04:02:22;;;;;;;;;1.00;1.00;;;;;10.07;82.70;101125.41;4997777;28;45698;-53
2023/12/14 04:04:48;;;;;;;;;5.00;2.00;;;;;10.06;82.60;101131.69;4997855;28;45374;-52
2023/12/14 04:07:13;;;;;;;;;1.33;1.33;;;;;10.05;82.64;101142.47;4996769;28;46844;-49
2023/12/14 04:09:38;;;;;;;;;1.00;1.00;;;;;10.03;82.73;101145.25;4997173;28;45374;-53
2023/12/14 04:12:04;;;;;;;;;1.67;1.67;;;;;9.98;82.95;101134.16;4997360;28;45325;-54
2023/12/14 04:14:30;;;;;;;;;3.00;3.00;;;;;10.06;82.57;101149.44;4997515;28;45775;-51
2023/12/14 04:16:55;;;;;;;;;2.00;2.00;;;;;10.03;82.77;101145.25;4997022;28;48169;-50
2023/12/14 04:19:21;;;;;;;;;2.00;2.00;;;;;10.06;82.49;101154.78;4997386;28;45323;-53
2023/12/14 04:21:47;;;;;;;;;3.67;3.00;;;;;10.06;82.72;101166.25;4997572;28;45404;-53
2023/12/14 04:24:12;;;;;;;;;4.00;3.00;;;;;10.06;82.65;101168.91;4997292;28;45362;-53
2023/12/14 04:26:38;;;;;;;;;3.00;2.00;;;;;10.09;82.42;101167.81;4997257;28;46001;-51
2023/12/14 04:29:04;;;;;;;;;6.00;2.00;;;;;10.10;82.49;101182.75;4997089;28;45378;-50
2023/12/14 04:31:29;;;;;;;;;3.67;3.00;;;;;10.09;82.31;101184.59;4997255;28;45391;-47
2023/12/14 04:33:55;;;;;;;;;6.00;2.00;;;;;9.70;82.39;101141.88;4997113;28;45375;-53
2023/12/14 04:36:20;;;;;;;;;3.67;2.33;;;;;10.11;82.50;101197.72;4997051;28;46495;-53
2023/12/14 04:38:46;;;;;;;;;5.00;2.67;;;;;10.10;82.40;101207.53;4997004;28;45325;-52
2023/12/14 04:41:12;;;;;;;;;2.67;2.00;;;;;10.09;82.62;101211.16;4996913;28;45400;-54
2023/12/14 04:43:37;;;;;;;;;5.00;3.00;;;;;10.09;82.28;101216.50;4997021;28;45451;-52
2023/12/14 04:46:03;;;;;;;;;5.00;2.33;;;;;10.10;82.43;101223.47;4996435;28;47576;-51
2023/12/14 04:48:29;;;;;;;;;2.00;2.00;;;;;10.11;82.40;101237.63;4996773;28;45575;-53
2023/12/14 04:50:54;;;;;;;;;4.67;2.00;;;;;10.10;82.49;101234.13;4996835;28;45298;-50
2023/12/14 04:53:19;;;;;;;;;7.33;4.67;;;;;10.09;82.13;101245.72;4996919;28;45466;-52
2023/12/14 04:55:44;;;;;;;;;2.67;2.33;;;;;10.10;82.23;101260.69;4996825;28;46165;-55
2023/12/14 04:58:10;;;;;;;;;8.67;4.33;;;;;10.10;82.36;101263.34;4996730;28;45444;-56
2023/12/14 05:00:35;;;;;;;;;3.00;3.00;;;;;10.12;82.19;101272.06;4996723;28;45523;-54
2023/12/14 05:03:00;;;;;;;;;3.00;1.00;;;;;10.11;82.17;101272.16;4996956;28;45272;-55
2023/12/14 05:05:25;;;;;;;;;5.33;3.00;;;;;10.13;82.19;101279.06;4996543;28;47195;-55
2023/12/14 05:07:51;;;;;;;;;6.33;5.00;;;;;10.13;82.25;101270.25;4996224;28;48190;-54
2023/12/14 05:10:16;;;;;;;;;6.67;5.00;;;;;10.15;82.07;101285.06;4996665;28;45391;-56
2023/12/14 05:12:42;;;;;;;;;4.33;3.00;;;;;10.16;82.21;101288.59;4996665;28;45532;-55
2023/12/14 05:15:07;;;;;;;;;5.67;2.33;;;;;10.15;82.09;101295.69;4996058;28;47749;-55
2023/12/14 05:17:34;;;;;;;;;9.33;7.00;;;;;10.13;81.95;101296.81;4996321;28;45409;-56
2023/12/14 05:19:59;;;;;;;;;9.00;5.00;;;;;10.12;82.01;101288.00;4996176;28;45360;-54
2023/12/14 05:22:25;;;;;;;;;5.00;4.33;;;;;10.13;81.99;101299.47;4996557;28;45517;-52
2023/12/14 05:24:50;;;;;;;;;5.00;3.00;;;;;10.14;81.76;101309.13;4996011;28;46165;-55
2023/12/14 05:27:15;;;;;;;;;6.00;3.67;;;;;10.14;82.11;101314.44;4996347;28;45353;-55
2023/12/14 05:29:41;;;;;;;;;7.00;4.67;;;;;10.11;81.91;101314.69;4996325;28;45319;-53
2023/12/14 05:32:06;;;;;;;;;3.00;3.00;;;;;10.15;81.73;101324.94;4996159;28;45338;-55
2023/12/14 05:34:32;;;;;;;;;4.00;4.00;;;;;10.16;81.73;101334.63;4995640;28;46162;-55
2023/12/14 05:36:57;;;;;;;;;3.67;3.33;;;;;10.15;81.44;101343.56;4996116;28;45354;-55
2023/12/14 05:39:22;;;;;;;;;5.67;5.67;;;;;10.17;81.63;101336.31;4996324;28;45430;-53
2023/12/14 05:41:48;;;;;;;;;3.00;3.00;;;;;10.15;81.11;101329.41;4996605;28;45397;-55
2023/12/14 05:44:13;;;;;;;;;3.33;3.33;;;;;10.16;81.25;101342.59;4995754;28;47331;-50
2023/12/14 05:46:38;;;;;;;;;5.00;4.33;;;;;10.16;81.21;101342.59;4995664;28;47066;-54
2023/12/14 05:49:04;;;;;;;;;3.00;3.00;;;;;10.17;81.14;101352.25;4996311;28;45452;-53
2023/12/14 05:51:31;;;;;;;;;6.67;4.33;;;;;10.19;81.37;101357.44;4996205;28;45497;-51
2023/12/14 05:53:56;;;;;;;;;7.67;5.00;;;;;10.17;81.17;101351.41;4995787;28;46319;-53
2023/12/14 05:56:22;;;;;;;;;5.33;4.67;;;;;10.17;80.85;101349.59;4995802;28;45305;-50
2023/12/14 05:58:48;;;;;;;;;8.67;5.67;;;;;10.15;81.33;101354.19;4996042;28;45420;-48
2023/12/14 06:01:13;;;;;;;;;6.67;5.00;;;;;10.17;81.01;101362.06;4995985;28;45443;-52
2023/12/14 06:03:38;;;;;;;;;8.00;3.67;;;;;10.08;80.90;101360.19;4995733;28;46727;-54
2023/12/14 06:06:04;;;;;;;;;9.67;4.33;;;;;10.17;80.90;101378.84;4995559;28;51174;-52
2023/12/14 06:08:29;;;;;;;;;5.33;5.33;;;;;10.10;80.65;101372.34;4996021;28;45338;-52
2023/12/14 06:10:55;;;;;;;;;7.67;3.33;;;;;10.16;80.92;101379.81;4995886;28;45381;-52
2023/12/14 06:13:21;;;;;;;;;6.00;3.67;;;;;10.15;80.97;101383.44;4995668;28;45941;-50
2023/12/14 06:15:46;;;;;;;;;3.00;3.00;;;;;10.15;80.84;101388.75;4995689;28;45375;-50
2023/12/14 06:18:12;;;;;;;;;4.33;4.33;;;;;10.15;81.15;101394.06;4995665;28;45382;-52
2023/12/14 06:20:37;;;;;;;;;10.00;5.33;;;;;10.15;80.97;101403.88;4995933;28;45345;-51
2023/12/14 06:23:03;;;;;;;;;6.67;5.67;;;;;10.14;80.77;101410.16;4995288;28;53519;-53
2023/12/14 06:25:28;;;;;;;;;7.00;5.67;;;;;10.13;80.87;101422.63;4995573;28;45463;-48
2023/12/14 06:27:54;;;;;;;;;8.33;3.67;;;;;10.12;80.99;101423.59;4995868;28;45285;-52
2023/12/14 06:30:19;;;;;;;;;4.67;4.67;;;;;10.04;80.64;101425.19;4995787;28;45486;-46
2023/12/14 06:32:45;;;;;;;;;3.67;3.67;;;;;10.10;81.12;101436.16;4998170;28;51484;-50
2023/12/14 06:35:10;;;;;;;;;9.67;8.33;;;;;10.09;80.92;101439.78;4998672;28;45318;-50
2023/12/14 06:37:35;;;;;;;;;6.67;6.00;;;;;10.10;80.86;101452.09;4998961;28;45338;-52
2023/12/14 06:40:01;;;;;;;;;8.00;5.33;;;;;10.05;80.89;101448.97;4999130;28;45366;-52
2023/12/14 06:42:27;;;;;;;;;2.67;2.00;;;;;10.11;80.63;101466.22;4998665;28;46104;-51
2023/12/14 06:44:53;;;;;;;;;5.33;3.00;;;;;10.10;80.61;101470.72;4998319;28;45458;-51
2023/12/14 06:47:18;;;;;;;;;6.33;5.00;;;;;10.10;80.51;101478.69;4998768;28;45342;-52
2023/12/14 06:49:44;;;;;;;;;6.67;3.33;;;;;10.10;80.76;101483.16;4998802;28;45399;-51
2023/12/14 06:52:09;;;;;;;;;6.67;5.33;;;;;10.09;80.87;101487.63;4998474;28;45904;-51
2023/12/14 06:54:35;;;;;;;;;7.00;5.00;;;;;10.10;80.67;101491.97;4998522;28;45302;-51
2023/12/14 06:57:01;;;;;;;;;2.67;2.67;;;;;10.13;80.44;101504.19;4998674;28;45471;-53
2023/12/14 06:59:26;;;;;;;;;6.00;3.33;;;;;10.13;80.29;101502.38;4998780;28;45391;-55
2023/12/14 07:01:51;;;;;;;;;5.33;3.00;;;;;10.12;80.31;101519.31;4998223;28;53409;-52
2023/12/14 07:04:19;;;;;;;;;4.33;4.00;;;;;10.07;80.77;101512.66;4998511;28;45421;-51
2023/12/14 07:06:50;;;;;;;;;4.67;2.67;;;;;10.09;80.68;101524.84;4998667;28;45362;-50
2023/12/14 07:09:15;;;;;;;;;12.33;3.00;;;;;10.12;81.03;101532.59;4998752;28;45437;-51
2023/12/14 07:11:41;;;;;;;;;7.00;3.00;;;;;10.12;80.40;101532.59;4998258;28;45364;-54
2023/12/14 07:14:06;;;;;;;;;7.00;2.00;;;;;10.11;79.94;101533.56;4998420;28;45827;-53
2023/12/14 07:16:31;;;;;;;;;7.33;3.00;;;;;10.11;80.22;101538.00;4998035;28;47254;-53
2023/12/14 07:18:57;;;;;;;;;2.33;2.33;;;;;10.13;80.57;101544.91;4998302;28;45600;-50
2023/12/14 07:21:22;;;;;;;;;6.00;2.00;;;;;10.12;80.39;101553.84;4998126;28;45973;-52
2023/12/14 07:23:48;;;;;;;;;8.33;5.00;;;;;10.14;80.15;101554.56;4998199;28;46129;-51
2023/12/14 07:26:13;;;;;;;;;5.67;5.00;;;;;10.16;80.20;101555.31;4998545;28;45191;-54
2023/12/14 07:28:38;;;;;;;;;5.33;5.00;;;;;10.18;79.97;101569.31;4998397;28;45172;-51
2023/12/14 07:31:04;;;;;;;;;6.00;4.33;;;;;10.20;79.97;101570.03;4997849;28;46116;-53
2023/12/14 07:33:29;;;;;;;;;3.00;1.67;;;;;10.18;80.31;101565.81;4997874;28;45644;-47
2023/12/14 07:35:54;;;;;;;;;5.00;2.00;;;;;10.19;80.18;101570.97;4996948;28;45458;-53
2023/12/14 07:38:20;;;;;;;;;6.00;2.00;;;;;10.17;80.65;101578.25;4998265;28;45351;-48
2023/12/14 07:40:46;;;;;;;;;2.00;2.00;;;;;10.19;80.53;101586.94;4997780;28;46981;-48
2023/12/14 07:43:12;;;;;;;;;4.00;2.00;;;;;10.21;80.51;101597.47;4996491;28;45471;-52
2023/12/14 07:45:37;;;;;;;;;6.33;2.00;;;;;10.20;80.28;101601.09;4997869;28;45411;-49
2023/12/14 07:48:03;;;;;;;;;7.00;3.00;;;;;10.16;80.13;101597.84;4996667;28;45359;-48
2023/12/14 07:50:29;;;;;;;;;7.00;4.33;;;;;10.20;80.25;101609.94;4997403;28;46246;-52
2023/12/14 07:52:54;;;;;;;;;2.67;2.00;;;;;10.18;80.21;101598.56;4997640;28;45434;-50
2023/12/14 07:55:20;;;;;;;;;8.00;6.00;;;;;10.22;79.75;101621.28;4997844;28;45377;-50
2023/12/14 07:57:46;;;;;;;;;4.33;4.00;;;;;10.25;80.30;101628.19;4998059;28;45377;-47
2023/12/14 08:00:12;;;;;;;;;6.00;3.67;;;;;10.23;79.59;101632.75;4997441;28;46320;-52
2023/12/14 08:02:37;;;;;;;;;4.33;2.67;;;;;10.24;79.80;101634.47;4995842;28;45255;-52
2023/12/14 08:05:04;;;;;;;;;5.67;5.00;;;;;10.20;79.27;101633.84;4997466;28;45374;-54
2023/12/14 08:07:30;;;;;;;;;6.67;5.00;;;;;10.24;79.25;101642.44;4997706;28;45329;-53
2023/12/14 08:09:56;;;;;;;;;3.00;3.00;;;;;10.20;79.29;101649.81;4997133;28;45518;-51
2023/12/14 08:12:22;;;;;;;;;4.00;4.00;;;;;10.22;79.31;101653.19;4997186;28;45307;-56
2023/12/14 08:14:47;;;;;;;;;1.67;1.67;;;;;10.22;79.03;101657.66;4997377;28;45476;-54
2023/12/14 08:17:13;;;;;;;;;4.33;3.00;;;;;10.22;79.20;101661.16;4997171;28;45563;-55
2023/12/14 08:19:38;;;;;;;;;3.00;2.67;;;;;10.20;79.44;101663.09;4997118;28;46022;-55
2023/12/14 08:22:03;;;;;;;;;4.33;2.00;;;;;10.20;79.64;101667.59;4997037;28;45406;-50
2023/12/14 08:24:29;;;;;;;;;3.33;2.00;;;;;10.19;79.95;101672.03;4997199;28;45434;-51
2023/12/14 08:26:54;;;;;;;;;5.67;3.00;;;;;10.18;80.36;101691.63;4997370;28;45322;-54
2023/12/14 08:29:19;;;;;;;;;6.00;3.00;;;;;10.17;80.58;101686.44;4997073;28;45976;-49
2023/12/14 08:31:45;;;;;;;;;1.67;1.67;;;;;10.16;81.03;101693.56;4996893;28;47057;-51
2023/12/14 08:34:10;;;;;;;;;2.00;2.00;;;;;10.16;80.96;101698.88;4996847;28;45480;-48
2023/12/14 08:36:35;;;;;;;;;6.33;3.00;;;;;10.15;80.37;101693.66;4996987;28;45448;-49
2023/12/14 08:39:01;;;;;;;;;5.67;4.33;;;;;10.13;80.32;101704.44;4996799;28;46266;-51
2023/12/14 08:41:26;;;;;;;;;7.00;5.00;;;;;10.08;80.13;101700.44;4996825;28;45272;-53
2023/12/14 08:43:53;;;;;;;;;9.00;4.33;;;;;10.10;79.92;101714.44;4996843;28;45545;-50
2023/12/14 08:46:18;;;;;;;;;5.00;5.00;;;;;10.11;79.71;101726.78;4997361;28;45314;-51
2023/12/14 08:48:44;;;;;;;;;3.00;3.00;;;;;10.07;79.31;101730.63;4996552;28;45412;-50
2023/12/14 08:51:09;;;;;;;;;4.00;2.00;;;;;10.09;78.84;101731.38;4996791;28;45431;-50
2023/12/14 08:53:34;;;;;;;;;7.33;3.67;;;;;9.94;78.47;101717.44;4996332;28;45269;-52
2023/12/14 08:55:59;;;;;;;;;4.67;4.67;;;;;10.06;78.45;101739.59;4997011;28;45401;-54
2023/12/14 08:58:25;;;;;;;;;9.67;3.00;;;;;10.06;77.70;101745.75;4996502;28;47231;-52
2023/12/14 09:00:53;;;;;;;;;3.67;3.67;;;;;10.05;77.66;101743.22;4996605;28;45354;-48
2023/12/14 09:03:19;;;;;;;;;6.33;5.00;;;;;10.06;77.39;101744.91;4996628;28;45567;-49
2023/12/14 09:05:45;;;;;;;;;4.33;4.33;;;;;10.05;77.11;101748.53;4996705;28;45299;-50
2023/12/14 09:08:10;;;;;;;;;5.00;3.00;;;;;10.07;77.22;101751.91;4996275;28;45505;-52
2023/12/14 09:10:36;;;;;;;;;6.33;6.00;;;;;10.08;77.30;101757.13;4996451;28;45426;-51
2023/12/14 09:13:04;;;;;;;;;6.67;4.67;;;;;10.06;77.32;101761.69;4996707;28;45395;-51
2023/12/14 09:15:30;;;;;;;;;6.00;3.00;;;;;10.10;77.30;101764.97;4996617;28;45862;-51
2023/12/14 09:17:56;;;;;;;;;1.67;1.67;;;;;10.10;76.90;101767.63;4994767;28;46993;-51
2023/12/14 09:20:21;;;;;;;;;6.33;4.33;;;;;10.08;76.66;101778.38;4996188;28;45394;-48
2023/12/14 09:22:46;;;;;;;;;4.33;2.33;;;;;10.06;76.41;101777.66;4996315;28;45208;-50
2023/12/14 09:25:12;;;;;;;;;3.00;2.33;;;;;10.07;76.58;101786.47;4996380;28;45437;-51
2023/12/14 09:27:37;;;;;;;;;5.33;5.00;;;;;10.06;76.67;101798.06;4996098;28;47017;-50
2023/12/14 09:30:03;;;;;;;;;5.33;3.00;;;;;10.09;76.59;101800.50;4996044;28;46908;-51
2023/12/14 09:32:28;;;;;;;;;3.00;3.00;;;;;10.06;76.95;101793.59;4996458;28;45403;-50
2023/12/14 09:34:56;;;;;;;;;4.00;1.00;;;;;10.15;76.44;101802.69;4995975;28;45378;-50
2023/12/14 09:37:22;;;;;;;;;5.33;3.00;;;;;10.16;76.27;101799.91;4996243;28;46335;-49
2023/12/14 09:39:47;;;;;;;;;3.00;3.00;;;;;10.17;75.84;101803.41;4996173;28;45366;-49
2023/12/14 09:42:17;;;;;;;;;5.00;3.00;;;;;10.20;75.87;101805.84;4992369;28;45591;-47
2023/12/14 09:44:43;;;;;;;;;3.00;1.33;;;;;10.23;75.73;101805.59;4993022;28;45570;-48
2023/12/14 09:47:09;;;;;;;;;6.00;6.00;;;;;10.28;75.25;101819.44;4992570;28;46247;-47
2023/12/14 09:49:36;;;;;;;;;5.33;5.00;;;;;10.33;74.80;101816.41;4992855;28;45457;-50
2023/12/14 09:52:02;;;;;;;;;6.00;2.00;;;;;10.40;74.23;101834.41;4993194;28;45625;-47
2023/12/14 09:54:27;;;;;;;;;4.00;2.00;;;;;10.43;73.20;101833.34;4992761;28;45846;-48
2023/12/14 09:56:53;;;;;;;;;2.00;2.00;;;;;10.37;72.74;101829.34;4991829;28;47113;-49
2023/12/14 09:59:19;;;;;;;;;3.67;3.67;;;;;10.34;73.39;101834.91;4991193;28;45406;-46
2023/12/14 10:01:45;;;;;;;;;3.67;3.67;;;;;10.28;73.84;101842.50;4992762;28;46389;-49
2023/12/14 10:04:14;;;;;;;;;5.67;4.33;;;;;10.32;73.40;101849.28;4992706;28;45519;-48
2023/12/14 10:06:42;;;;;;;;;8.00;5.00;;;;;10.38;73.48;101854.97;4993489;28;46126;-48
2023/12/14 10:09:14;;;;;;;;;5.33;4.67;;;;;10.50;73.12;101845.22;4995649;28;45444;-48
2023/12/14 10:11:40;;;;;;;;;7.67;4.67;;;;;10.57;72.61;101851.72;4995183;28;45402;-50
2023/12/14 10:14:32;;;;;;;;;5.33;4.67;;;;;10.72;72.57;101863.00;4996227;28;45562;-55
2023/12/14 10:16:58;;;;;;;;;8.00;5.00;;;;;10.67;71.53;101846.56;4993360;28;45432;-50
2023/12/14 10:19:23;;;;;;;;;5.00;5.00;;;;;10.87;71.69;101863.59;4995362;28;45445;-47
2023/12/14 10:21:50;;;;;;;;;7.67;5.67;;;;;10.95;72.09;101866.50;4994854;28;45425;-55
2023/12/14 10:24:17;;;;;;;;;3.00;3.00;;;;;11.03;71.35;101871.22;4996047;28;45512;-54
2023/12/14 10:26:46;;;;;;;;;12.00;5.00;;;;;11.10;70.74;101881.28;4996370;28;46218;-55
2023/12/14 10:29:11;;;;;;;;;3.67;3.00;;;;;11.18;70.15;101892.16;4994555;28;45298;-53
2023/12/14 10:31:37;;;;;;;;;6.67;6.00;;;;;11.25;70.17;101884.53;4995987;28;45752;-54
2023/12/14 10:34:06;;;;;;;;;3.00;3.00;;;;;11.34;69.42;101886.47;4995703;28;45282;-51
2023/12/14 10:36:32;;;;;;;;;10.00;8.33;;;;;11.48;69.35;101899.50;4994143;28;46024;-54
2023/12/14 10:38:59;;;;;;;;;4.67;3.00;;;;;11.43;68.98;101895.53;4995760;28;45282;-52
2023/12/14 10:41:25;;;;;;;;;5.33;3.00;;;;;11.46;69.90;101904.13;4995520;28;45672;-54
2023/12/14 10:43:54;;;;;;;;;7.00;5.33;;;;;11.32;68.48;101903.53;4996089;28;45425;-55
2023/12/14 10:46:20;;;;;;;;;7.33;3.00;;;;;11.26;68.64;101912.88;4994646;28;46444;-54
2023/12/14 10:48:47;;;;;;;;;7.67;5.67;;;;;11.17;68.18;101917.09;4995350;28;45481;-51
2023/12/14 10:51:14;;;;;;;;;10.00;5.00;;;;;11.09;68.56;101919.53;4996479;28;45520;-52
2023/12/14 10:53:44;;;;;;;;;7.00;4.00;;;;;11.03;68.80;101917.34;4995565;28;45392;-55
2023/12/14 10:56:11;;;;;;;;;2.67;2.67;;;;;10.99;69.29;101922.03;4994906;28;46154;-46
2023/12/14 10:58:57;;;;;;;;;4.00;4.00;;;;;10.97;68.99;101916.00;4995218;28;45860;-50
2023/12/14 11:01:24;;;;;;;;;6.33;3.00;;;;;10.93;68.82;101927.03;4995601;28;45435;-50
2023/12/14 11:03:55;;;;;;;;;6.00;6.00;;;;;10.87;68.54;101917.72;4995254;28;45510;-48
2023/12/14 11:06:30;;;;;;;;;5.33;5.33;;;;;10.95;68.97;101939.22;4994929;28;46604;-48
2023/12/14 11:09:05;;;;;;;;;8.00;6.00;;;;;10.90;69.32;101944.06;4995104;28;45896;-48
2023/12/14 11:11:40;;;;;;;;;7.67;5.33;;;;;10.69;69.62;101929.78;4993698;28;45481;-51
2023/12/14 11:14:08;;;;;;;;;6.00;3.33;;;;;10.78;69.07;101953.00;4993552;28;45415;-49
2023/12/14 11:16:33;;;;;;;;;5.33;5.00;;;;;10.67;69.24;101948.53;4994025;28;45504;-51
2023/12/14 11:19:21;;;;;;;;;9.33;6.00;;;;;10.67;69.31;101956.50;4994716;28;45393;-51
2023/12/14 11:21:47;;;;;;;;;9.00;7.00;;;;;10.66;69.04;101951.28;4995447;28;45420;-49